• Join FlightAware (Why Join?)
  • Login
  • US Flag 
12:05AM EDT


 

Airport Tracker/Info


-or-


 

Live Flight TrackerFlight Track Log ✈ EJA396 ✈ 01-Oct-2013 ✈ KJAC - KSFO

Flight Track Log - Related Links

Times and Time Zones

All times are in EDT time to prevent confusion due to time zone crossing. See the EJA396 flight status page for this flight to view local times or setup timezone preferences in your user account.

Time Position Orientation Groundspeed Altitude Reporting Facility
EDT Latitude Longitude Course Direction KTS MPH feet Rate Location/Type
02:12PM 43.5750 -110.7583 239° Southwest 224 258 8,200  Level Salt Lake Center
02:13PM 43.5111 -110.8003 205° Southwest 253 291 11,700 3,660 Climbing Salt Lake Center
02:14PM 43.4394 -110.8461 205° Southwest 275 316 15,800 3,480 Climbing Salt Lake Center
02:15PM 43.3714 -110.9114 215° Southwest 302 348 18,900 2,940 Climbing Salt Lake Center
02:16PM 43.2918 -111.4762 240° Southwest  Level Estimated
02:16PM 43.3319 -111.0097 241° Southwest 300 345 21,900  Level Salt Lake Center
02:17PM 43.2387 -111.5986 239° Southwest  Level Estimated
02:17PM 43.2839 -111.1219 240° Southwest 304 350 25,000  Level Salt Lake Center
02:18PM 43.2417 -111.2228 240° Southwest 317 365 27,400 2,340 Climbing Salt Lake Center
02:19PM 43.1903 -111.3431 240° Southwest 326 375 29,900 2,220 Climbing Salt Lake Center
02:20PM 43.1472 -111.4436 240° Southwest 323 372 32,100 2,280 Climbing Salt Lake Center
02:21PM 43.0983 -111.5561 239° Southwest 311 358 34,700 2,220 Climbing Salt Lake Center
02:22PM 43.0572 -111.6531 240° Southwest 309 356 36,800 2,040 Climbing Salt Lake Center
02:23PM 43.0125 -111.7572 240° Southwest 291 335 39,000 1,500 Climbing Salt Lake Center
02:24PM 42.9753 -111.8419 239° Southwest 275 316 40,000 480 Climbing Salt Lake Center
02:25PM 42.9272 -111.9492 239° Southwest 293 337 40,000  Level Salt Lake Center
02:26PM 42.8811 -112.0550 239° Southwest 328 377 40,000  Level Salt Lake Center
02:27PM 42.8322 -112.1675 239° Southwest 352 405 40,000  Level Salt Lake Center
02:28PM 42.7719 -112.3033 239° Southwest 373 429 40,000  Level Salt Lake Center
02:29PM 42.7181 -112.4225 238° Southwest 384 442 40,000  Level Salt Lake Center
02:30PM 42.6572 -112.5625 239° Southwest 385 443 40,000  Level Salt Lake Center
02:31PM 42.6025 -112.6847 239° Southwest 383 441 40,000  Level Salt Lake Center
02:32PM 42.5481 -112.8075 239° Southwest 382 440 40,000  Level Salt Lake Center
02:33PM 42.4928 -112.9289 238° Southwest 380 437 40,000  Level Salt Lake Center
02:34PM 42.4278 -113.0719 238° Southwest 375 432 40,000  Level Salt Lake Center
02:35PM 42.3717 -113.1956 238° Southwest 384 442 40,000  Level Salt Lake Center
02:36PM 42.3175 -113.3144 238° Southwest 376 433 40,000  Level Salt Lake Center
02:37PM 42.2628 -113.4353 239° Southwest 379 436 40,000  Level Salt Lake Center
02:38PM 42.2069 -113.5550 238° Southwest 379 436 40,000  Level Salt Lake Center
02:39PM 42.1550 -113.6783 240° Southwest 378 435 40,000  Level Salt Lake Center
02:41PM 42.1050 -113.8356 247° West 382 440 40,000  Level Salt Lake Center
02:42PM 42.0628 -113.9672 247° West 384 442 40,000  Level Salt Lake Center
02:43PM 42.0211 -114.0972 247° West 380 437 40,000  Level Salt Lake Center
02:44PM 41.9803 -114.2311 248° West 389 448 40,000  Level Salt Lake Center
02:45PM 41.9378 -114.3619 246° West 385 443 40,000  Level Salt Lake Center
02:46PM 41.8956 -114.4914 246° West 380 437 40,000  Level Salt Lake Center
02:47PM 41.8464 -114.6419 246° West 387 445 40,000  Level Salt Lake Center
02:48PM 41.8025 -114.7653 245° Southwest 384 442 40,000  Level Salt Lake Center
02:49PM 41.7539 -114.9117 246° West 385 443 40,000  Level Salt Lake Center
02:50PM 41.7136 -115.0381 247° West 386 444 40,000  Level Salt Lake Center
02:51PM 41.6647 -115.1825 246° West 383 441 40,000  Level Salt Lake Center
02:52PM 41.6217 -115.3072 245° Southwest 385 443 40,000  Level Salt Lake Center
02:53PM 41.5731 -115.4531 246° West 386 444 40,000  Level Salt Lake Center
02:54PM 41.5303 -115.5781 245° Southwest 387 445 40,000  Level Salt Lake Center
02:55PM 41.4883 -115.7044 246° West 388 447 40,000  Level Salt Lake Center
02:56PM 41.4383 -115.8478 245° Southwest 385 443 40,000  Level Salt Lake Center
02:57PM 41.3950 -115.9714 245° Southwest 384 442 40,000  Level Salt Lake Center
02:58PM 41.3450 -116.1169 245° Southwest 386 444 40,000  Level Salt Lake Center
02:59PM 41.3028 -116.2436 246° West 389 448 40,000  Level Salt Lake Center
03:00PM 41.2531 -116.3897 246° West 391 450 40,000  Level Salt Lake Center
03:01PM 41.2089 -116.5147 245° Southwest 390 449 40,000  Level Salt Lake Center
03:02PM 41.1564 -116.6578 244° Southwest 388 447 40,000  Level Salt Lake Center
03:03PM 41.1125 -116.7822 245° Southwest 389 448 40,000  Level Salt Lake Center
03:04PM 41.0689 -116.9069 245° Southwest 390 449 40,000  Level Salt Lake Center
03:05PM 41.0158 -117.0508 244° Southwest 390 449 40,000  Level Salt Lake Center
03:06PM 40.9717 -117.1744 245° Southwest 391 450 40,000  Level Salt Lake Center
03:07PM 40.9203 -117.3181 245° Southwest 389 448 40,000  Level Salt Lake Center
03:08PM 40.8753 -117.4436 245° Southwest 393 452 40,000  Level Salt Lake Center
03:09PM 40.8231 -117.5872 244° Southwest 392 451 40,000  Level Salt Lake Center
03:10PM 40.7767 -117.7106 244° Southwest 392 451 40,000  Level Salt Lake Center
03:11PM 40.7231 -117.8550 244° Southwest 393 452 40,000  Level Salt Lake Center
03:12PM 40.6792 -117.9789 245° Southwest 393 452 40,000  Level Salt Lake Center
03:13PM 40.6253 -118.1200 243° Southwest 388 447 40,000  Level Salt Lake Center
03:14PM 40.5792 -118.2428 244° Southwest 390 449 40,000  Level Salt Lake Center
03:16PM 40.5328 -118.3642 243° Southwest 389 448 40,000  Level Salt Lake Center
03:17PM 40.4803 -118.5078 244° Southwest 391 450 40,000  Level Salt Lake Center
03:18PM 40.4342 -118.6292 244° Southwest 390 449 40,000  Level Salt Lake Center
03:19PM 40.3797 -118.7714 243° Southwest 390 449 40,000  Level Salt Lake Center
03:20PM 40.3347 -118.8917 244° Southwest 387 445 40,000  Level Salt Lake Center
03:21PM 40.2828 -119.0264 243° Southwest 384 442 40,000  Level Salt Lake Center
03:22PM 40.2344 -119.1511 243° Southwest 385 443 40,000  Level Salt Lake Center
03:23PM 40.1858 -119.2764 243° Southwest 387 445 40,000  Level Salt Lake Center
03:24PM 40.1369 -119.4022 243° Southwest 389 448 40,000  Level Salt Lake Center
03:25PM 40.0783 -119.5539 243° Southwest 390 449 40,000  Level Oakland Center
03:26PM 40.0292 -119.6800 243° Southwest 392 451 40,000  Level Oakland Center
03:27PM 39.9808 -119.8022 243° Southwest 383 441 40,000  Level Oakland Center
03:28PM 39.9317 -119.9281 243° Southwest 390 449 40,000  Level Oakland Center
03:29PM 39.8817 -120.0533 243° Southwest 391 450 40,000  Level Oakland Center
03:30PM 39.8225 -120.2003 242° Southwest 389 448 40,000  Level Oakland Center
03:31PM 39.7703 -120.3264 242° Southwest 393 452 40,000  Level Oakland Center
03:32PM 39.7217 -120.4533 244° Southwest 393 452 40,000  Level Oakland Center
03:33PM 39.6711 -120.5772 242° Southwest 391 450 40,000  Level Oakland Center
03:34PM 39.6203 -120.7036 242° Southwest 394 453 40,000  Level Oakland Center
03:35PM 39.5686 -120.8267 241° Southwest 391 450 40,000  Level Oakland Center
03:36PM 39.4953 -120.9336 228° Southwest 395 455 40,000  Level Oakland Center
03:37PM 39.4217 -121.0364 227° Southwest 393 452 40,000  Level Oakland Center
03:38PM 39.3467 -121.1403 227° Southwest 394 453 40,000  Level Oakland Center
03:39PM 39.2581 -121.2661 228° Southwest 396 456 40,000  Level Oakland Center
03:40PM 39.1831 -121.3700 227° Southwest 397 457 40,000  Level Oakland Center
03:41PM 39.1081 -121.4750 227° Southwest 399 459 40,000  Level Oakland Center
03:42PM 39.0322 -121.5797 227° Southwest 401 461 40,000 -360 Level Oakland Center
03:43PM 38.9569 -121.6833 227° Southwest 399 459 39,300 -1,380 Descending Oakland Center
03:44PM 38.8833 -121.7847 227° Southwest 394 453 37,200 -1,980 Descending Oakland Center
03:45PM 38.8125 -121.8819 227° Southwest 379 436 35,300 -2,160 Descending Oakland Center
03:46PM 38.7219 -122.0033 226° Southwest 394 453 32,800 -2,160 Descending Oakland Center
03:47PM 38.6569 -122.0931 227° Southwest 399 459 30,900 -1,980 Descending Oakland Center
03:48PM 38.5811 -122.1958 227° Southwest 400 460 28,800 -2,400 Descending Oakland Center
03:49PM 38.4881 -122.3200 226° Southwest 403 464 26,100 -2,400 Descending Oakland Center
03:50PM 38.4117 -122.4236 227° Southwest 402 463 24,000 -2,100 Descending Oakland Center
03:51PM 38.3392 -122.5203 226° Southwest 384 442 21,900 -1,500 Descending Oakland Center
03:53PM 38.2703 -122.6133 227° Southwest 366 421 21,000 -1,260 Descending Oakland Center
03:54PM 38.2017 -122.7056 227° Southwest 363 418 19,400 -1,920 Descending Oakland Center
03:55PM 38.1189 -122.7783 215° Southwest 367 422 17,200 -2,760 Descending Oakland Center
03:56PM 37.9978 -122.7678 176° South 375 432 13,800 -2,760 Descending Oakland Center
03:57PM 37.9172 -122.6928 144° Southeast 369 425 11,600 -1,380 Descending Oakland Center
03:58PM 37.8431 -122.6122 139° Southeast 368 423 11,000 -300 Descending Oakland Center
03:59PM 37.7669 -122.5322 140° Southeast 364 419 11,000  Level Oakland Center
04:00PM 37.7222 -122.4403 122° Southeast 309 356 11,000 -660 Level Oakland Center
04:00PM 37.7000 -122.3500 107° East 266 306 9,900 -1,740 Descending Northern Cal TRACON
04:01PM 37.6667 -122.2667 117° Southeast 269 310 8,000 -1,800 Descending Northern Cal TRACON
04:02PM 37.6500 -122.1833 104° East 249 287 6,300 -1,080 Descending Northern Cal TRACON
04:03PM 37.6167 -122.1333 130° Southeast 198 228 5,900 -660 Descending Northern Cal TRACON
04:04PM 37.5667 -122.1167 165° South 219 252 5,100 -840 Descending Northern Cal TRACON
04:05PM 37.5667 -122.1833 270° West 180 207 4,400 -960 Descending Northern Cal TRACON
04:06PM 37.5667 -122.2500 270° West 157 181 3,200 -1,380 Descending Northern Cal TRACON
04:07PM 37.5764 -122.2692 303° West 173 199 2,400 -1,440 Descending Oakland Center
04:08PM 37.5983 -122.3197 299° West 168 193 1,000 -1,020 Descending Oakland Center
04:09PM 37.6125 -122.3567 296° West 139 160 400 -600 Descending Oakland Center